sensor_id;sensor_type;location;lat;lon;timestamp;temperature;humidity
1678;DHT22;6034;46.864;15.216;2022-10-20T05:01:03;11.90;99.90
1678;DHT22;6034;46.864;15.216;2022-10-20T05:03:30;11.90;99.90
1678;DHT22;6034;46.864;15.216;2022-10-20T05:06:06;11.90;99.90
1678;DHT22;6034;46.864;15.216;2022-10-20T05:08:34;11.90;99.90
1678;DHT22;6034;46.864;15.216;2022-10-20T05:11:01;11.90;99.90
1678;DHT22;6034;46.864;15.216;2022-10-20T05:13:28;11.80;99.90
1678;DHT22;6034;46.864;15.216;2022-10-20T05:15:55;11.90;99.90
1678;DHT22;6034;46.864;15.216;2022-10-20T05:18:23;11.80;99.90
1678;DHT22;6034;46.864;15.216;2022-10-20T05:20:50;11.80;99.90
1678;DHT22;6034;46.864;15.216;2022-10-20T05:23:17;11.80;99.90
1678;DHT22;6034;46.864;15.216;2022-10-20T05:25:44;11.80;99.90
1678;DHT22;6034;46.864;15.216;2022-10-20T05:28:11;11.60;99.90
1678;DHT22;6034;46.864;15.216;2022-10-20T05:30:38;11.80;99.90
1678;DHT22;6034;46.864;15.216;2022-10-20T05:33:05;11.80;99.90
1678;DHT22;6034;46.864;15.216;2022-10-20T05:35:33;11.70;99.90
1678;DHT22;6034;46.864;15.216;2022-10-20T05:38:00;11.70;99.90
1678;DHT22;6034;46.864;15.216;2022-10-20T05:40:27;11.60;99.90
1678;DHT22;6034;46.864;15.216;2022-10-20T05:42:54;11.70;99.90
1678;DHT22;6034;46.864;15.216;2022-10-20T05:45:22;11.70;99.90
1678;DHT22;6034;46.864;15.216;2022-10-20T05:47:49;11.70;99.90
1678;DHT22;6034;46.864;15.216;2022-10-20T05:50:15;11.70;99.90
1678;DHT22;6034;46.864;15.216;2022-10-20T05:52:44;11.70;99.90
1678;DHT22;6034;46.864;15.216;2022-10-20T05:55:11;11.70;99.90
1678;DHT22;6034;46.864;15.216;2022-10-20T05:57:38;11.70;99.90
1678;DHT22;6034;46.864;15.216;2022-10-20T06:00:05;11.70;99.90
1678;DHT22;6034;46.864;15.216;2022-10-20T06:02:33;11.70;99.90
1678;DHT22;6034;46.864;15.216;2022-10-20T06:04:59;11.60;99.90
1678;DHT22;6034;46.864;15.216;2022-10-20T06:07:26;11.70;99.90
1678;DHT22;6034;46.864;15.216;2022-10-20T06:09:54;11.70;99.90
1678;DHT22;6034;46.864;15.216;2022-10-20T06:12:21;11.60;99.90
1678;DHT22;6034;46.864;15.216;2022-10-20T06:14:48;11.70;99.90
1678;DHT22;6034;46.864;15.216;2022-10-20T06:17:15;11.70;99.90
1678;DHT22;6034;46.864;15.216;2022-10-20T06:19:42;11.70;99.90
1678;DHT22;6034;46.864;15.216;2022-10-20T06:22:09;11.70;99.90
1678;DHT22;6034;46.864;15.216;2022-10-20T06:24:37;11.80;99.90
1678;DHT22;6034;46.864;15.216;2022-10-20T06:27:05;11.80;99.90
1678;DHT22;6034;46.864;15.216;2022-10-20T06:29:33;11.70;99.90
1678;DHT22;6034;46.864;15.216;2022-10-20T06:32:00;11.70;99.90
1678;DHT22;6034;46.864;15.216;2022-10-20T06:34:27;11.70;99.90
1678;DHT22;6034;46.864;15.216;2022-10-20T06:36:54;11.80;99.90
1678;DHT22;6034;46.864;15.216;2022-10-20T06:39:21;11.80;99.90
1678;DHT22;6034;46.864;15.216;2022-10-20T06:41:50;11.80;99.90
1678;DHT22;6034;46.864;15.216;2022-10-20T06:44:19;11.80;99.90
1678;DHT22;6034;46.864;15.216;2022-10-20T06:46:46;11.80;99.90
1678;DHT22;6034;46.864;15.216;2022-10-20T06:49:13;11.70;99.90
1678;DHT22;6034;46.864;15.216;2022-10-20T06:51:40;11.80;99.90
1678;DHT22;6034;46.864;15.216;2022-10-20T06:54:07;11.60;99.90
1678;DHT22;6034;46.864;15.216;2022-10-20T06:56:36;11.50;99.90
1678;DHT22;6034;46.864;15.216;2022-10-20T06:59:07;11.50;99.90
1678;DHT22;6034;46.864;15.216;2022-10-20T07:01:37;11.50;99.90
1678;DHT22;6034;46.864;15.216;2022-10-20T07:04:05;11.60;99.90
1678;DHT22;6034;46.864;15.216;2022-10-20T07:06:34;11.60;99.90
1678;DHT22;6034;46.864;15.216;2022-10-20T07:09:02;11.60;99.90
1678;DHT22;6034;46.864;15.216;2022-10-20T07:11:30;11.70;99.90
1678;DHT22;6034;46.864;15.216;2022-10-20T07:13:57;11.80;99.90
1678;DHT22;6034;46.864;15.216;2022-10-20T07:16:28;11.50;99.90
1678;DHT22;6034;46.864;15.216;2022-10-20T07:18:56;11.50;99.90
1678;DHT22;6034;46.864;15.216;2022-10-20T07:21:24;11.80;99.90
1678;DHT22;6034;46.864;15.216;2022-10-20T07:23:52;11.80;99.90
1678;DHT22;6034;46.864;15.216;2022-10-20T07:26:21;11.80;99.90
1678;DHT22;6034;46.864;15.216;2022-10-20T07:28:49;11.90;99.90
1678;DHT22;6034;46.864;15.216;2022-10-20T07:31:17;11.70;99.90
1678;DHT22;6034;46.864;15.216;2022-10-20T07:33:45;11.50;99.90
1678;DHT22;6034;46.864;15.216;2022-10-20T07:36:17;11.20;99.90
1678;DHT22;6034;46.864;15.216;2022-10-20T07:38:45;10.90;99.90
1678;DHT22;6034;46.864;15.216;2022-10-20T07:41:13;10.90;99.90
1678;DHT22;6034;46.864;15.216;2022-10-20T07:43:41;10.90;99.90
1678;DHT22;6034;46.864;15.216;2022-10-20T07:46:10;10.90;99.90
1678;DHT22;6034;46.864;15.216;2022-10-20T07:48:38;10.80;99.90
1678;DHT22;6034;46.864;15.216;2022-10-20T07:51:24;10.90;99.90
1678;DHT22;6034;46.864;15.216;2022-10-20T07:53:51;10.90;99.90
1678;DHT22;6034;46.864;15.216;2022-10-20T07:56:19;11.00;99.90
1678;DHT22;6034;46.864;15.216;2022-10-20T07:58:46;10.90;99.90
1678;DHT22;6034;46.864;15.216;2022-10-20T08:01:13;10.90;99.90
1678;DHT22;6034;46.864;15.216;2022-10-20T08:03:40;10.80;99.90
1678;DHT22;6034;46.864;15.216;2022-10-20T08:06:07;10.70;99.90
1678;DHT22;6034;46.864;15.216;2022-10-20T08:08:35;10.60;99.90
1678;DHT22;6034;46.864;15.216;2022-10-20T08:11:02;10.70;99.90
1678;DHT22;6034;46.864;15.216;2022-10-20T08:13:30;10.80;99.90
1678;DHT22;6034;46.864;15.216;2022-10-20T08:15:58;10.80;99.90
1678;DHT22;6034;46.864;15.216;2022-10-20T08:18:25;10.70;99.90
1678;DHT22;6034;46.864;15.216;2022-10-20T08:20:52;10.80;99.90
1678;DHT22;6034;46.864;15.216;2022-10-20T08:23:19;10.70;99.90
1678;DHT22;6034;46.864;15.216;2022-10-20T08:25:47;10.70;99.90
1678;DHT22;6034;46.864;15.216;2022-10-20T08:28:14;10.90;99.90
1678;DHT22;6034;46.864;15.216;2022-10-20T08:30:41;10.90;99.90
1678;DHT22;6034;46.864;15.216;2022-10-20T08:33:08;10.80;99.90
1678;DHT22;6034;46.864;15.216;2022-10-20T08:35:35;10.70;99.90
1678;DHT22;6034;46.864;15.216;2022-10-20T08:38:03;10.80;99.90
1678;DHT22;6034;46.864;15.216;2022-10-20T08:40:31;10.70;99.90
1678;DHT22;6034;46.864;15.216;2022-10-20T08:43:00;10.80;99.90
1678;DHT22;6034;46.864;15.216;2022-10-20T08:45:27;10.80;99.90
1678;DHT22;6034;46.864;15.216;2022-10-20T08:47:54;10.90;99.90
1678;DHT22;6034;46.864;15.216;2022-10-20T08:50:22;11.00;99.90
1678;DHT22;6034;46.864;15.216;2022-10-20T08:55:24;10.90;99.90
1678;DHT22;6034;46.864;15.216;2022-10-20T08:57:51;10.80;99.90
1678;DHT22;6034;46.864;15.216;2022-10-20T09:00:24;11.00;99.90
1678;DHT22;6034;46.864;15.216;2022-10-20T09:02:51;11.00;99.90
1678;DHT22;6034;46.864;15.216;2022-10-20T09:05:19;11.10;99.90
1678;DHT22;6034;46.864;15.216;2022-10-20T09:07:47;11.10;99.90
1678;DHT22;6034;46.864;15.216;2022-10-20T09:10:19;11.30;99.90
1678;DHT22;6034;46.864;15.216;2022-10-20T09:12:49;11.30;99.90
1678;DHT22;6034;46.864;15.216;2022-10-20T09:15:16;11.20;99.90
1678;DHT22;6034;46.864;15.216;2022-10-20T09:17:45;11.40;99.90
1678;DHT22;6034;46.864;15.216;2022-10-20T09:20:14;11.40;99.90
1678;DHT22;6034;46.864;15.216;2022-10-20T09:22:43;11.40;99.90
1678;DHT22;6034;46.864;15.216;2022-10-20T09:25:11;11.30;99.90
1678;DHT22;6034;46.864;15.216;2022-10-20T09:27:40;11.60;99.90
1678;DHT22;6034;46.864;15.216;2022-10-20T09:30:14;11.60;99.90
1678;DHT22;6034;46.864;15.216;2022-10-20T09:32:42;11.60;99.90
1678;DHT22;6034;46.864;15.216;2022-10-20T09:35:18;11.60;99.90
1678;DHT22;6034;46.864;15.216;2022-10-20T09:37:49;11.70;99.90
1678;DHT22;6034;46.864;15.216;2022-10-20T09:40:16;11.40;99.90
1678;DHT22;6034;46.864;15.216;2022-10-20T09:42:44;11.40;99.90
1678;DHT22;6034;46.864;15.216;2022-10-20T09:45:15;11.40;99.90
1678;DHT22;6034;46.864;15.216;2022-10-20T09:47:44;11.50;99.90
1678;DHT22;6034;46.864;15.216;2022-10-20T09:50:16;11.70;99.90
1678;DHT22;6034;46.864;15.216;2022-10-20T09:52:46;11.70;99.90
1678;DHT22;6034;46.864;15.216;2022-10-20T09:55:20;11.80;99.90
1678;DHT22;6034;46.864;15.216;2022-10-20T09:57:49;11.80;99.90
1678;DHT22;6034;46.864;15.216;2022-10-20T10:00:23;11.80;99.90
1678;DHT22;6034;46.864;15.216;2022-10-20T10:03:02;11.80;99.90
1678;DHT22;6034;46.864;15.216;2022-10-20T10:05:35;11.80;99.90
1678;DHT22;6034;46.864;15.216;2022-10-20T10:08:03;11.90;99.90
1678;DHT22;6034;46.864;15.216;2022-10-20T10:10:30;11.90;99.90
1678;DHT22;6034;46.864;15.216;2022-10-20T10:12:58;11.90;99.90
1678;DHT22;6034;46.864;15.216;2022-10-20T10:15:29;11.90;99.90
1678;DHT22;6034;46.864;15.216;2022-10-20T10:17:56;12.10;99.90
1678;DHT22;6034;46.864;15.216;2022-10-20T10:20:27;12.00;99.90
1678;DHT22;6034;46.864;15.216;2022-10-20T10:23:06;12.00;99.90
1678;DHT22;6034;46.864;15.216;2022-10-20T10:25:33;12.00;99.90
1678;DHT22;6034;46.864;15.216;2022-10-20T10:28:01;12.20;99.90
1678;DHT22;6034;46.864;15.216;2022-10-20T10:30:32;12.20;99.90
1678;DHT22;6034;46.864;15.216;2022-10-20T10:32:59;12.30;99.90
1678;DHT22;6034;46.864;15.216;2022-10-20T10:35:28;12.40;99.90
1678;DHT22;6034;46.864;15.216;2022-10-20T10:37:56;12.40;99.90
1678;DHT22;6034;46.864;15.216;2022-10-20T10:40:27;12.40;99.90
1678;DHT22;6034;46.864;15.216;2022-10-20T10:45:43;12.50;99.90
1678;DHT22;6034;46.864;15.216;2022-10-20T10:48:17;12.40;99.90
1678;DHT22;6034;46.864;15.216;2022-10-20T10:50:46;12.60;99.90
1678;DHT22;6034;46.864;15.216;2022-10-20T10:53:23;12.60;99.90
1678;DHT22;6034;46.864;15.216;2022-10-20T10:55:56;12.60;99.90
1678;DHT22;6034;46.864;15.216;2022-10-20T10:58:38;12.70;99.90
1678;DHT22;6034;46.864;15.216;2022-10-20T11:01:12;12.30;99.90
1678;DHT22;6034;46.864;15.216;2022-10-20T11:03:44;12.50;99.90
1678;DHT22;6034;46.864;15.216;2022-10-20T11:06:22;12.60;99.90
1678;DHT22;6034;46.864;15.216;2022-10-20T11:09:01;12.60;99.90
1678;DHT22;6034;46.864;15.216;2022-10-20T11:11:34;12.70;99.90
1678;DHT22;6034;46.864;15.216;2022-10-20T11:14:11;12.80;99.90
1678;DHT22;6034;46.864;15.216;2022-10-20T11:16:41;12.80;99.90
1678;DHT22;6034;46.864;15.216;2022-10-20T11:22:01;12.90;99.90
1678;DHT22;6034;46.864;15.216;2022-10-20T11:24:38;12.60;99.90
1678;DHT22;6034;46.864;15.216;2022-10-20T11:27:10;12.70;99.90
1678;DHT22;6034;46.864;15.216;2022-10-20T11:29:39;12.90;99.90
1678;DHT22;6034;46.864;15.216;2022-10-20T11:32:09;13.00;99.90
1678;DHT22;6034;46.864;15.216;2022-10-20T11:34:39;13.10;99.90
1678;DHT22;6034;46.864;15.216;2022-10-20T11:37:11;13.10;99.90
1678;DHT22;6034;46.864;15.216;2022-10-20T11:39:41;13.10;99.90
1678;DHT22;6034;46.864;15.216;2022-10-20T11:42:14;13.00;99.90
1678;DHT22;6034;46.864;15.216;2022-10-20T11:44:44;13.20;99.90
1678;DHT22;6034;46.864;15.216;2022-10-20T11:47:14;13.10;99.90
1678;DHT22;6034;46.864;15.216;2022-10-20T11:49:42;12.90;99.90
1678;DHT22;6034;46.864;15.216;2022-10-20T11:52:25;12.40;99.90
1678;DHT22;6034;46.864;15.216;2022-10-20T11:55:02;12.30;99.90
1678;DHT22;6034;46.864;15.216;2022-10-20T11:57:36;12.20;99.90
1678;DHT22;6034;46.864;15.216;2022-10-20T12:00:18;12.10;99.90
1678;DHT22;6034;46.864;15.216;2022-10-20T12:02:57;12.10;99.90
1678;DHT22;6034;46.864;15.216;2022-10-20T12:05:45;12.50;99.90
1678;DHT22;6034;46.864;15.216;2022-10-20T12:10:57;12.40;99.90
1678;DHT22;6034;46.864;15.216;2022-10-20T12:13:31;12.50;99.90
1678;DHT22;6034;46.864;15.216;2022-10-20T12:15:59;12.80;99.90
1678;DHT22;6034;46.864;15.216;2022-10-20T12:18:26;13.00;99.90
1678;DHT22;6034;46.864;15.216;2022-10-20T12:20:55;13.20;99.90
1678;DHT22;6034;46.864;15.216;2022-10-20T12:28:58;13.20;99.90
1678;DHT22;6034;46.864;15.216;2022-10-20T12:31:26;13.30;99.90
1678;DHT22;6034;46.864;15.216;2022-10-20T12:34:21;13.40;99.90
1678;DHT22;6034;46.864;15.216;2022-10-20T12:36:48;13.40;99.90
1678;DHT22;6034;46.864;15.216;2022-10-20T12:39:16;13.60;99.90
1678;DHT22;6034;46.864;15.216;2022-10-20T12:41:45;13.60;99.90
1678;DHT22;6034;46.864;15.216;2022-10-20T12:44:20;13.60;99.90
1678;DHT22;6034;46.864;15.216;2022-10-20T12:46:51;13.80;99.90
1678;DHT22;6034;46.864;15.216;2022-10-20T12:49:20;13.80;99.90
1678;DHT22;6034;46.864;15.216;2022-10-20T12:51:48;13.80;99.90
1678;DHT22;6034;46.864;15.216;2022-10-20T12:54:20;13.70;99.90
1678;DHT22;6034;46.864;15.216;2022-10-20T12:56:48;13.50;99.90
1678;DHT22;6034;46.864;15.216;2022-10-20T13:04:54;13.90;99.90
1678;DHT22;6034;46.864;15.216;2022-10-20T13:12:50;13.80;99.90
1678;DHT22;6034;46.864;15.216;2022-10-20T13:15:17;16.80;99.90
1678;DHT22;6034;46.864;15.216;2022-10-20T13:17:49;13.80;99.90
1678;DHT22;6034;46.864;15.216;2022-10-20T13:20:20;14.00;99.90
1678;DHT22;6034;46.864;15.216;2022-10-20T13:22:48;14.00;99.90
1678;DHT22;6034;46.864;15.216;2022-10-20T13:28:03;12.20;99.90
1678;DHT22;6034;46.864;15.216;2022-10-20T13:30:32;13.80;99.90
1678;DHT22;6034;46.864;15.216;2022-10-20T13:33:01;13.90;99.90
1678;DHT22;6034;46.864;15.216;2022-10-20T13:35:32;13.90;99.90
1678;DHT22;6034;46.864;15.216;2022-10-20T13:38:02;14.00;99.90
1678;DHT22;6034;46.864;15.216;2022-10-20T13:40:43;14.00;99.90
1678;DHT22;6034;46.864;15.216;2022-10-20T13:43:17;14.00;99.90
1678;DHT22;6034;46.864;15.216;2022-10-20T13:45:52;14.00;99.90
1678;DHT22;6034;46.864;15.216;2022-10-20T13:48:27;13.80;99.90
1678;DHT22;6034;46.864;15.216;2022-10-20T13:51:00;13.80;99.90
1678;DHT22;6034;46.864;15.216;2022-10-20T13:53:30;13.70;99.90
1678;DHT22;6034;46.864;15.216;2022-10-20T13:56:00;13.50;99.90
1678;DHT22;6034;46.864;15.216;2022-10-20T13:58:28;13.30;99.90
1678;DHT22;6034;46.864;15.216;2022-10-20T14:00:59;13.40;99.90
1678;DHT22;6034;46.864;15.216;2022-10-20T14:03:27;13.40;99.90
1678;DHT22;6034;46.864;15.216;2022-10-20T14:05:55;13.40;99.90
1678;DHT22;6034;46.864;15.216;2022-10-20T14:08:25;13.50;99.90
1678;DHT22;6034;46.864;15.216;2022-10-20T14:10:53;13.60;99.90
1678;DHT22;6034;46.864;15.216;2022-10-20T14:13:22;13.70;99.90
1678;DHT22;6034;46.864;15.216;2022-10-20T14:15:50;13.70;99.90
1678;DHT22;6034;46.864;15.216;2022-10-20T14:18:20;13.80;99.90
1678;DHT22;6034;46.864;15.216;2022-10-20T14:20:53;13.90;99.90
1678;DHT22;6034;46.864;15.216;2022-10-20T14:23:20;12.50;99.90
1678;DHT22;6034;46.864;15.216;2022-10-20T14:25:50;14.00;99.90
1678;DHT22;6034;46.864;15.216;2022-10-20T14:28:20;14.00;99.90
1678;DHT22;6034;46.864;15.216;2022-10-20T14:30:50;13.90;99.90
1678;DHT22;6034;46.864;15.216;2022-10-20T14:33:22;13.90;99.90
1678;DHT22;6034;46.864;15.216;2022-10-20T14:35:52;14.00;99.90
1678;DHT22;6034;46.864;15.216;2022-10-20T14:38:22;14.00;99.90
1678;DHT22;6034;46.864;15.216;2022-10-20T14:40:54;14.10;99.90
1678;DHT22;6034;46.864;15.216;2022-10-20T14:43:23;14.10;99.90
1678;DHT22;6034;46.864;15.216;2022-10-20T14:45:53;14.10;99.90
1678;DHT22;6034;46.864;15.216;2022-10-20T14:48:31;13.90;99.90
1678;DHT22;6034;46.864;15.216;2022-10-20T14:51:02;13.80;99.90
1678;DHT22;6034;46.864;15.216;2022-10-20T14:53:51;14.00;99.90
1678;DHT22;6034;46.864;15.216;2022-10-20T14:56:44;14.10;99.90
1678;DHT22;6034;46.864;15.216;2022-10-20T14:59:14;14.10;99.90
1678;DHT22;6034;46.864;15.216;2022-10-20T15:01:45;14.10;99.90
1678;DHT22;6034;46.864;15.216;2022-10-20T15:04:22;14.10;99.90
1678;DHT22;6034;46.864;15.216;2022-10-20T15:06:49;14.10;99.90
1678;DHT22;6034;46.864;15.216;2022-10-20T15:09:22;14.10;99.90
1678;DHT22;6034;46.864;15.216;2022-10-20T15:11:52;13.90;99.90
1678;DHT22;6034;46.864;15.216;2022-10-20T15:14:19;13.90;99.90
1678;DHT22;6034;46.864;15.216;2022-10-20T15:16:46;13.80;99.90
1678;DHT22;6034;46.864;15.216;2022-10-20T15:22:00;13.80;99.90
1678;DHT22;6034;46.864;15.216;2022-10-20T15:24:27;13.70;99.90
1678;DHT22;6034;46.864;15.216;2022-10-20T15:26:56;13.80;99.90
1678;DHT22;6034;46.864;15.216;2022-10-20T15:29:24;13.80;99.90
1678;DHT22;6034;46.864;15.216;2022-10-20T15:31:50;13.90;99.90
1678;DHT22;6034;46.864;15.216;2022-10-20T15:34:18;13.90;99.90
1678;DHT22;6034;46.864;15.216;2022-10-20T15:36:45;13.90;99.90
1678;DHT22;6034;46.864;15.216;2022-10-20T15:39:12;13.80;99.90
1678;DHT22;6034;46.864;15.216;2022-10-20T15:41:39;13.80;99.90
1678;DHT22;6034;46.864;15.216;2022-10-20T15:44:10;13.80;99.90
1678;DHT22;6034;46.864;15.216;2022-10-20T15:46:38;13.80;99.90
1678;DHT22;6034;46.864;15.216;2022-10-20T15:49:05;13.90;99.90
1678;DHT22;6034;46.864;15.216;2022-10-20T15:51:32;13.90;99.90
1678;DHT22;6034;46.864;15.216;2022-10-20T15:54:00;13.70;99.90
1678;DHT22;6034;46.864;15.216;2022-10-20T15:56:26;13.60;99.90
1678;DHT22;6034;46.864;15.216;2022-10-20T15:58:53;13.60;99.90
1678;DHT22;6034;46.864;15.216;2022-10-20T16:01:22;13.60;99.90
1678;DHT22;6034;46.864;15.216;2022-10-20T16:03:49;13.60;99.90
1678;DHT22;6034;46.864;15.216;2022-10-20T16:06:17;13.60;99.90
1678;DHT22;6034;46.864;15.216;2022-10-20T16:08:44;13.70;99.90
1678;DHT22;6034;46.864;15.216;2022-10-20T16:11:13;13.70;99.90
1678;DHT22;6034;46.864;15.216;2022-10-20T16:13:42;13.70;99.90
1678;DHT22;6034;46.864;15.216;2022-10-20T16:16:10;13.60;99.90
1678;DHT22;6034;46.864;15.216;2022-10-20T16:18:39;13.50;99.90
1678;DHT22;6034;46.864;15.216;2022-10-20T16:21:06;13.50;99.90
1678;DHT22;6034;46.864;15.216;2022-10-20T16:23:34;13.60;99.90
1678;DHT22;6034;46.864;15.216;2022-10-20T16:26:03;13.60;99.90
1678;DHT22;6034;46.864;15.216;2022-10-20T16:28:30;13.60;99.90
1678;DHT22;6034;46.864;15.216;2022-10-20T16:31:00;13.70;99.90
1678;DHT22;6034;46.864;15.216;2022-10-20T16:33:27;13.70;99.90
1678;DHT22;6034;46.864;15.216;2022-10-20T16:35:56;13.60;99.90
1678;DHT22;6034;46.864;15.216;2022-10-20T16:38:23;13.60;99.90
1678;DHT22;6034;46.864;15.216;2022-10-20T16:40:55;13.50;99.90
1678;DHT22;6034;46.864;15.216;2022-10-20T16:43:22;13.60;99.90
1678;DHT22;6034;46.864;15.216;2022-10-20T16:45:49;13.50;99.90
1678;DHT22;6034;46.864;15.216;2022-10-20T16:48:17;13.50;99.90
1678;DHT22;6034;46.864;15.216;2022-10-20T16:50:44;13.50;99.90
1678;DHT22;6034;46.864;15.216;2022-10-20T16:53:12;13.60;99.90
1678;DHT22;6034;46.864;15.216;2022-10-20T16:55:39;13.60;99.90
1678;DHT22;6034;46.864;15.216;2022-10-20T16:58:06;13.50;99.90
1678;DHT22;6034;46.864;15.216;2022-10-20T17:00:33;13.40;99.90
1678;DHT22;6034;46.864;15.216;2022-10-20T17:03:00;12.00;99.90
1678;DHT22;6034;46.864;15.216;2022-10-20T17:05:27;13.50;99.90
1678;DHT22;6034;46.864;15.216;2022-10-20T17:07:54;13.40;99.90
1678;DHT22;6034;46.864;15.216;2022-10-20T17:10:22;13.50;99.90
1678;DHT22;6034;46.864;15.216;2022-10-20T17:12:49;13.50;99.90
1678;DHT22;6034;46.864;15.216;2022-10-20T17:15:16;13.40;99.90
1678;DHT22;6034;46.864;15.216;2022-10-20T17:17:43;13.50;99.90
1678;DHT22;6034;46.864;15.216;2022-10-20T17:20:10;13.40;99.90
1678;DHT22;6034;46.864;15.216;2022-10-20T17:22:37;13.40;99.90
1678;DHT22;6034;46.864;15.216;2022-10-20T17:25:05;13.40;99.90
1678;DHT22;6034;46.864;15.216;2022-10-20T17:27:33;13.40;99.90
1678;DHT22;6034;46.864;15.216;2022-10-20T17:30:00;13.40;99.90
1678;DHT22;6034;46.864;15.216;2022-10-20T17:32:27;13.40;99.90
1678;DHT22;6034;46.864;15.216;2022-10-20T17:34:54;13.40;99.90
1678;DHT22;6034;46.864;15.216;2022-10-20T17:37:21;13.40;99.90
1678;DHT22;6034;46.864;15.216;2022-10-20T17:39:48;13.30;99.90
1678;DHT22;6034;46.864;15.216;2022-10-20T17:42:17;13.30;99.90
1678;DHT22;6034;46.864;15.216;2022-10-20T17:44:50;13.30;99.90
1678;DHT22;6034;46.864;15.216;2022-10-20T17:47:17;13.30;99.90
1678;DHT22;6034;46.864;15.216;2022-10-20T17:49:43;13.30;99.90
1678;DHT22;6034;46.864;15.216;2022-10-20T17:52:10;13.20;99.90
1678;DHT22;6034;46.864;15.216;2022-10-20T17:54:37;13.30;99.90
1678;DHT22;6034;46.864;15.216;2022-10-20T17:57:04;13.20;99.90
1678;DHT22;6034;46.864;15.216;2022-10-20T17:59:32;13.20;99.90
1678;DHT22;6034;46.864;15.216;2022-10-20T18:02:00;13.20;99.90
1678;DHT22;6034;46.864;15.216;2022-10-20T18:04:27;13.20;99.90
1678;DHT22;6034;46.864;15.216;2022-10-20T18:06:54;13.10;99.90
1678;DHT22;6034;46.864;15.216;2022-10-20T18:09:21;13.20;99.90
1678;DHT22;6034;46.864;15.216;2022-10-20T18:11:49;13.20;99.90
1678;DHT22;6034;46.864;15.216;2022-10-20T18:14:16;13.20;99.90
1678;DHT22;6034;46.864;15.216;2022-10-20T18:16:43;13.20;99.90
1678;DHT22;6034;46.864;15.216;2022-10-20T18:19:12;13.20;99.90
1678;DHT22;6034;46.864;15.216;2022-10-20T18:21:40;13.10;99.90
1678;DHT22;6034;46.864;15.216;2022-10-20T18:24:09;13.20;99.90
1678;DHT22;6034;46.864;15.216;2022-10-20T18:26:36;13.10;99.90
1678;DHT22;6034;46.864;15.216;2022-10-20T18:29:03;13.10;99.90
1678;DHT22;6034;46.864;15.216;2022-10-20T18:31:31;13.10;99.90
1678;DHT22;6034;46.864;15.216;2022-10-20T18:33:58;13.20;99.90
1678;DHT22;6034;46.864;15.216;2022-10-20T18:36:27;13.20;99.90
1678;DHT22;6034;46.864;15.216;2022-10-20T18:38:54;13.20;99.90
1678;DHT22;6034;46.864;15.216;2022-10-20T18:41:21;13.10;99.90
1678;DHT22;6034;46.864;15.216;2022-10-20T18:43:50;13.10;99.90
1678;DHT22;6034;46.864;15.216;2022-10-20T18:46:17;13.10;99.90
1678;DHT22;6034;46.864;15.216;2022-10-20T18:48:44;13.10;99.90
1678;DHT22;6034;46.864;15.216;2022-10-20T18:51:11;13.10;99.90
1678;DHT22;6034;46.864;15.216;2022-10-20T18:53:40;13.00;99.90
1678;DHT22;6034;46.864;15.216;2022-10-20T18:56:09;13.10;99.90
1678;DHT22;6034;46.864;15.216;2022-10-20T18:58:40;12.80;99.90
1678;DHT22;6034;46.864;15.216;2022-10-20T19:01:08;12.90;99.90
1678;DHT22;6034;46.864;15.216;2022-10-20T19:03:36;13.00;99.90
1678;DHT22;6034;46.864;15.216;2022-10-20T19:06:04;13.00;99.90
1678;DHT22;6034;46.864;15.216;2022-10-20T19:08:33;12.90;99.90
1678;DHT22;6034;46.864;15.216;2022-10-20T19:11:01;12.90;99.90
1678;DHT22;6034;46.864;15.216;2022-10-20T19:13:29;12.90;99.90
1678;DHT22;6034;46.864;15.216;2022-10-20T19:15:56;13.00;99.90
1678;DHT22;6034;46.864;15.216;2022-10-20T19:18:25;13.00;99.90
1678;DHT22;6034;46.864;15.216;2022-10-20T19:20:52;12.90;99.90
1678;DHT22;6034;46.864;15.216;2022-10-20T19:23:20;12.90;99.90
1678;DHT22;6034;46.864;15.216;2022-10-20T19:25:47;12.90;99.90
1678;DHT22;6034;46.864;15.216;2022-10-20T19:28:15;12.90;99.90
1678;DHT22;6034;46.864;15.216;2022-10-20T19:30:42;12.90;99.90
1678;DHT22;6034;46.864;15.216;2022-10-20T19:33:09;12.90;99.90
1678;DHT22;6034;46.864;15.216;2022-10-20T19:35:37;12.90;99.90
1678;DHT22;6034;46.864;15.216;2022-10-20T19:38:04;12.90;99.90
1678;DHT22;6034;46.864;15.216;2022-10-20T19:40:31;12.90;99.90
1678;DHT22;6034;46.864;15.216;2022-10-20T19:42:58;12.90;99.90
1678;DHT22;6034;46.864;15.216;2022-10-20T19:45:27;12.80;99.90
1678;DHT22;6034;46.864;15.216;2022-10-20T19:47:55;12.80;99.90
1678;DHT22;6034;46.864;15.216;2022-10-20T19:50:25;12.80;99.90
1678;DHT22;6034;46.864;15.216;2022-10-20T19:52:52;12.70;99.90
1678;DHT22;6034;46.864;15.216;2022-10-20T19:55:18;12.70;99.90
1678;DHT22;6034;46.864;15.216;2022-10-20T19:57:46;12.70;99.90
1678;DHT22;6034;46.864;15.216;2022-10-20T20:00:13;12.70;99.90
1678;DHT22;6034;46.864;15.216;2022-10-20T20:02:41;12.70;99.90
1678;DHT22;6034;46.864;15.216;2022-10-20T20:05:08;12.70;99.90
1678;DHT22;6034;46.864;15.216;2022-10-20T20:07:35;12.70;99.90
1678;DHT22;6034;46.864;15.216;2022-10-20T20:10:02;12.60;99.90
1678;DHT22;6034;46.864;15.216;2022-10-20T20:12:29;12.60;99.90
1678;DHT22;6034;46.864;15.216;2022-10-20T20:14:56;12.60;99.90
1678;DHT22;6034;46.864;15.216;2022-10-20T20:17:23;12.60;99.90
1678;DHT22;6034;46.864;15.216;2022-10-20T20:19:51;12.50;99.90
1678;DHT22;6034;46.864;15.216;2022-10-20T20:22:18;12.60;99.90
1678;DHT22;6034;46.864;15.216;2022-10-20T20:24:45;12.60;99.90
1678;DHT22;6034;46.864;15.216;2022-10-20T20:27:12;12.60;99.90
1678;DHT22;6034;46.864;15.216;2022-10-20T20:29:39;12.60;99.90
1678;DHT22;6034;46.864;15.216;2022-10-20T20:32:08;13.50;99.90
1678;DHT22;6034;46.864;15.216;2022-10-20T20:34:36;12.60;99.90
1678;DHT22;6034;46.864;15.216;2022-10-20T20:37:04;12.60;99.90
1678;DHT22;6034;46.864;15.216;2022-10-20T20:39:31;12.50;99.90
1678;DHT22;6034;46.864;15.216;2022-10-20T20:41:58;12.50;99.90
1678;DHT22;6034;46.864;15.216;2022-10-20T20:44:25;12.50;99.90
1678;DHT22;6034;46.864;15.216;2022-10-20T20:46:52;12.40;99.90
1678;DHT22;6034;46.864;15.216;2022-10-20T20:49:19;12.40;99.90
1678;DHT22;6034;46.864;15.216;2022-10-20T20:51:46;12.40;99.90
1678;DHT22;6034;46.864;15.216;2022-10-20T20:54:14;12.40;99.90
1678;DHT22;6034;46.864;15.216;2022-10-20T20:56:41;12.40;99.90
1678;DHT22;6034;46.864;15.216;2022-10-20T20:59:08;12.50;99.90
